Time;durP1;ratioP1;P1;durP2;ratioP2;P2;SDS_P1;SDS_P2;PMS_P1;PMS_P2;Temp;Humidity;BMP_temperature;BMP_pressure;BME280_temperature;BME280_humidity;BME280_pressure;Samples;Min_cycle;Max_cycle;Signal;HPM_P1;HPM_P2
2023/06/09 00:00:40;;;;;;;2.30;2.10;;;;;;;12.71;62.13;96911.41;6270277;28;20037;-61
2023/06/09 00:03:45;;;;;;;3.50;2.45;;;;;;;12.65;62.39;96901.28;6270057;28;20526;-62
2023/06/09 00:06:54;;;;;;;3.60;2.28;;;;;;;12.66;62.52;96900.34;6272872;28;20036;-62
2023/06/09 00:10:00;;;;;;;4.07;2.40;;;;;;;12.65;62.60;96906.56;6269979;28;20045;-61
2023/06/09 00:13:04;;;;;;;3.40;2.10;;;;;;;12.64;62.62;96904.91;6269121;28;20044;-61
2023/06/09 00:16:05;;;;;;;3.45;2.00;;;;;;;12.62;62.77;96906.78;6271961;28;20417;-61
2023/06/09 00:19:13;;;;;;;3.15;2.03;;;;;;;12.60;63.05;96906.91;6272348;28;20043;-61
2023/06/09 00:22:20;;;;;;;4.28;2.47;;;;;;;12.61;63.08;96905.13;6273222;28;20036;-61
2023/06/09 00:25:21;;;;;;;7.45;2.58;;;;;;;12.64;63.15;96912.81;6276243;28;20049;-61
2023/06/09 00:28:27;;;;;;;4.07;2.38;;;;;;;12.69;63.05;96914.16;6276595;28;20045;-61
2023/06/09 00:31:33;;;;;;;4.60;2.72;;;;;;;12.72;62.80;96913.09;6256430;28;20466;-61
2023/06/09 00:34:39;;;;;;;3.75;2.35;;;;;;;12.77;62.72;96917.09;6274911;28;20055;-62
2023/06/09 00:37:48;;;;;;;4.50;2.53;;;;;;;12.77;62.46;96913.63;6274483;28;20528;-62
2023/06/09 00:40:52;;;;;;;4.32;2.22;;;;;;;12.88;62.13;96921.59;6274524;28;20507;-61
2023/06/09 00:43:55;;;;;;;30.77;18.70;;;;;;;12.89;61.99;96925.91;6273946;28;20139;-62
2023/06/09 00:46:59;;;;;;;8.82;4.78;;;;;;;12.83;62.14;96918.44;6275752;28;20434;-62
2023/06/09 00:50:04;;;;;;;6.05;3.50;;;;;;;12.89;62.17;96923.28;6273633;28;20131;-62
2023/06/09 00:53:07;;;;;;;2.72;2.42;;;;;;;12.89;62.19;96925.06;6285560;28;20045;-63
2023/06/09 00:56:16;;;;;;;4.55;2.78;;;;;;;12.97;62.14;96925.34;6291023;28;20052;-62
2023/06/09 00:59:20;;;;;;;2.70;2.20;;;;;;;13.06;61.96;96921.19;6296872;28;20522;-62
2023/06/09 01:02:24;;;;;;;4.53;2.67;;;;;;;13.16;61.90;96928.31;6281558;28;20041;-62
2023/06/09 01:05:28;;;;;;;6.32;3.10;;;;;;;13.19;61.64;96929.88;6277131;28;20458;-61
2023/06/09 01:08:55;;;;;;;5.68;3.20;;;;;;;13.29;61.74;96928.28;6277545;28;20483;-62
2023/06/09 01:12:23;;;;;;;4.93;3.45;;;;;;;13.41;61.20;96932.63;6276339;28;20048;-61
2023/06/09 01:15:31;;;;;;;5.05;3.40;;;;;;;13.76;60.29;96934.41;6284587;28;20060;-62
2023/06/09 01:18:36;;;;;;;7.47;3.70;;;;;;;14.17;59.43;96940.94;6289306;28;20057;-61
2023/06/09 01:21:44;;;;;;;6.03;4.05;;;;;;;14.53;58.75;96939.88;6288966;28;20133;-61
2023/06/09 01:25:11;;;;;;;5.25;3.42;;;;;;;14.73;57.87;96940.91;6285835;28;20048;-61
2023/06/09 01:28:20;;;;;;;3.05;2.70;;;;;;;14.88;57.25;96940.63;6286681;28;20048;-62
2023/06/09 01:31:24;;;;;;;8.02;4.38;;;;;;;14.89;57.28;96944.97;6281745;28;20061;-61
2023/06/09 01:34:28;;;;;;;4.18;2.90;;;;;;;14.84;57.50;96939.22;6273676;28;20040;-62
2023/06/09 01:37:29;;;;;;;4.93;3.25;;;;;;;14.80;57.47;96942.13;6276305;28;20044;-62
2023/06/09 01:40:36;;;;;;;4.63;3.30;;;;;;;14.84;57.52;96952.47;6276109;28;20040;-62
2023/06/09 01:43:37;;;;;;;7.07;3.08;;;;;;;14.85;57.44;96941.72;6276490;28;20048;-63
2023/06/09 01:46:43;;;;;;;6.55;2.65;;;;;;;14.87;57.42;96949.56;6275607;28;20041;-61
2023/06/09 01:49:54;;;;;;;5.28;2.55;;;;;;;14.97;57.42;96956.63;6276020;28;20048;-61
2023/06/09 01:53:04;;;;;;;7.07;3.20;;;;;;;15.04;57.05;96962.28;6277392;28;20044;-62
2023/06/09 01:56:15;;;;;;;7.65;3.33;;;;;;;15.08;56.90;96966.34;6281667;28;20037;-61
2023/06/09 01:59:33;;;;;;;5.35;2.78;;;;;;;15.15;57.07;96970.19;6284205;28;20044;-64
2023/06/09 02:02:42;;;;;;;5.18;2.35;;;;;;;15.21;56.67;96959.09;6278456;28;20032;-62
2023/06/09 02:05:46;;;;;;;4.60;2.00;;;;;;;15.37;56.39;96963.97;6276114;28;20045;-62
2023/06/09 02:08:51;;;;;;;3.45;1.85;;;;;;;15.49;56.16;96972.72;6275452;28;20048;-62
2023/06/09 02:11:58;;;;;;;5.03;3.95;;;;;;;15.65;56.00;96973.13;6274391;28;20048;-62
2023/06/09 02:15:04;;;;;;;8.38;4.63;;;;;;;15.93;55.52;96981.44;6275431;28;20040;-62
2023/06/09 02:18:11;;;;;;;9.90;4.65;;;;;;;16.17;54.99;96973.19;6273217;28;20044;-62
2023/06/09 02:21:13;;;;;;;8.48;5.00;;;;;;;16.55;54.36;96983.13;6277416;28;20555;-61
2023/06/09 02:24:17;;;;;;;9.57;5.25;;;;;;;17.04;53.23;96978.84;6258388;28;20134;-62
2023/06/09 02:27:21;;;;;;;9.48;5.00;;;;;;;17.53;52.32;96991.38;6276727;28;20032;-61
2023/06/09 02:30:27;;;;;;;11.27;6.63;;;;;;;17.99;51.18;96987.16;6275826;28;20040;-61
2023/06/09 02:33:31;;;;;;;7.63;4.32;;;;;;;18.29;50.38;96986.13;6273904;28;20037;-62
2023/06/09 02:36:37;;;;;;;8.30;3.65;;;;;;;18.39;49.77;96981.56;6273630;28;20032;-61
2023/06/09 02:39:41;;;;;;;10.85;4.88;;;;;;;18.36;49.52;96985.38;6273290;28;20052;-62
2023/06/09 02:42:46;;;;;;;10.80;4.50;;;;;;;18.24;49.79;96994.53;6276847;28;20755;-63
2023/06/09 02:45:51;;;;;;;8.20;4.30;;;;;;;18.07;49.82;96995.25;6272945;28;20446;-62
2023/06/09 02:48:52;;;;;;;8.55;4.50;;;;;;;17.97;50.06;96997.09;6275018;28;20025;-61
2023/06/09 02:51:56;;;;;;;9.95;4.55;;;;;;;17.83;49.99;96985.91;6272011;28;20405;-62
2023/06/09 02:54:57;;;;;;;;;;;;;;;17.81;50.53;96998.53;6274048;28;20211;-62
2023/06/09 02:58:04;;;;;;;10.10;4.57;;;;;;;17.59;50.90;96998.78;6275383;28;20062;-61
2023/06/09 03:01:06;;;;;;;9.90;4.57;;;;;;;17.48;51.28;96997.94;6271623;28;20052;-62
2023/06/09 03:04:11;;;;;;;27.30;15.10;;;;;;;17.39;51.64;96993.44;6274293;28;20040;-63
2023/06/09 03:07:16;;;;;;;14.30;6.75;;;;;;;17.56;51.15;96999.91;6262055;28;20045;-63
2023/06/09 03:10:18;;;;;;;11.63;5.90;;;;;;;17.96;50.18;97006.91;6274541;28;20041;-63
2023/06/09 03:13:22;;;;;;;13.77;5.60;;;;;;;18.52;48.95;96999.91;6279083;28;20523;-62
2023/06/09 03:16:27;;;;;;;8.65;5.15;;;;;;;18.94;47.74;97007.44;6275827;28;20040;-62
2023/06/09 03:19:29;;;;;;;14.75;5.50;;;;;;;19.24;47.13;97001.81;6274898;28;20036;-62
2023/06/09 03:22:36;;;;;;;14.73;5.63;;;;;;;19.47;46.62;96998.69;6277402;28;20037;-62
2023/06/09 03:25:39;;;;;;;12.25;5.25;;;;;;;19.77;45.84;97000.19;6275245;28;20069;-63
2023/06/09 03:28:40;;;;;;;12.48;5.68;;;;;;;20.09;44.79;97004.09;6273349;28;20124;-62
2023/06/09 03:31:47;;;;;;;12.15;6.30;;;;;;;20.21;44.85;96999.34;6274331;28;20051;-62
2023/06/09 03:34:52;;;;;;;13.98;5.60;;;;;;;20.26;44.78;97007.72;6275458;28;20036;-61
2023/06/09 03:37:56;;;;;;;10.90;5.63;;;;;;;20.18;44.42;97005.84;6277229;28;20044;-62
2023/06/09 03:40:59;;;;;;;12.27;5.82;;;;;;;20.22;44.58;97003.72;6277122;28;20056;-63
2023/06/09 03:44:01;;;;;;;11.88;5.57;;;;;;;20.24;44.25;97007.03;6273787;28;20045;-63
2023/06/09 03:47:02;;;;;;;10.45;5.88;;;;;;;20.36;43.87;97008.47;6273674;28;20094;-62
2023/06/09 03:50:06;;;;;;;12.15;6.05;;;;;;;20.46;43.59;97006.53;6273946;28;20414;-62
2023/06/09 03:53:10;;;;;;;13.73;6.95;;;;;;;20.48;43.30;97009.88;6274853;28;20036;-64
2023/06/09 03:56:17;;;;;;;12.90;6.38;;;;;;;20.43;43.19;97014.84;6273929;28;20125;-62
2023/06/09 03:59:18;;;;;;;10.98;6.13;;;;;;;20.44;43.25;97008.53;6275371;28;20143;-63
2023/06/09 04:02:19;;;;;;;13.45;6.28;;;;;;;20.48;43.03;97009.88;6275819;28;20420;-63
2023/06/09 04:05:24;;;;;;;13.77;5.90;;;;;;;20.52;42.79;97016.59;6277835;28;20190;-63
2023/06/09 04:08:32;;;;;;;16.73;6.95;;;;;;;20.54;42.52;97019.97;6277241;28;20044;-61
2023/06/09 04:11:33;;;;;;;14.70;6.55;;;;;;;20.63;41.45;97018.19;6276466;28;20492;-63
2023/06/09 04:14:37;;;;;;;19.05;7.88;;;;;;;20.65;40.89;97018.88;6274242;28;20037;-62
2023/06/09 04:17:41;;;;;;;16.83;8.18;;;;;;;20.86;39.77;97018.44;6278082;28;20037;-62
2023/06/09 04:20:45;;;;;;;16.63;7.95;;;;;;;21.22;39.06;97018.28;6283738;28;20045;-62
2023/06/09 04:23:53;;;;;;;11.85;6.78;;;;;;;21.46;38.82;97013.03;6273241;28;20047;-61
2023/06/09 04:26:55;;;;;;;12.40;6.32;;;;;;;21.79;38.13;97021.09;6277341;28;20037;-63
2023/06/09 04:29:57;;;;;;;11.70;6.38;;;;;;;21.85;37.88;97017.72;6273868;28;20511;-61
2023/06/09 04:33:04;;;;;;;15.80;5.35;;;;;;;21.88;37.52;97020.09;6277725;28;20526;-63
2023/06/09 04:36:08;;;;;;;4.93;3.70;;;;;;;21.74;38.00;97023.44;6275286;28;20459;-63
2023/06/09 04:39:12;;;;;;;9.07;3.88;;;;;;;21.81;37.90;97012.91;6273291;28;20041;-61
2023/06/09 04:42:19;;;;;;;9.27;4.00;;;;;;;22.24;37.26;97021.63;6275673;28;20424;-62
2023/06/09 04:45:27;;;;;;;11.85;3.40;;;;;;;24.14;33.56;97026.84;6271518;28;20048;-62
2023/06/09 04:48:29;;;;;;;6.80;3.33;;;;;;;26.02;30.71;97040.00;6274693;28;20036;-62
2023/06/09 04:51:41;;;;;;;4.88;2.97;;;;;;;26.75;29.18;97041.47;6277502;28;20033;-63
2023/06/09 04:54:44;;;;;;;4.28;2.58;;;;;;;27.40;27.41;97049.28;6274716;28;21425;-63
2023/06/09 04:57:46;;;;;;;4.68;2.58;;;;;;;28.30;26.74;97048.09;6280244;28;20114;-62
2023/06/09 05:00:50;;;;;;;4.45;2.63;;;;;;;31.23;23.47;97054.84;6283380;28;20041;-61
2023/06/09 05:03:55;;;;;;;1.95;1.75;;;;;;;34.56;20.15;97058.09;6282101;28;20044;-62
2023/06/09 05:06:57;;;;;;;1.73;1.17;;;;;;;36.80;17.62;97053.72;6285581;28;20049;-62
2023/06/09 05:10:02;;;;;;;4.18;1.45;;;;;;;38.54;16.01;97057.25;6282937;28;20135;-62
2023/06/09 05:13:09;;;;;;;1.88;1.33;;;;;;;39.71;14.92;97054.28;6283181;28;20550;-62
2023/06/09 05:16:11;;;;;;;4.07;1.40;;;;;;;40.80;14.15;97050.59;6287389;28;20415;-62
2023/06/09 05:19:15;;;;;;;3.15;1.35;;;;;;;42.22;12.79;97053.94;6291299;28;20063;-61
2023/06/09 05:22:18;;;;;;;3.22;1.40;;;;;;;43.93;11.55;97046.72;6286055;28;20052;-62
2023/06/09 05:25:22;;;;;;;4.50;1.60;;;;;;;44.10;10.06;97046.09;6288330;28;20041;-62
2023/06/09 05:28:26;;;;;;;7.63;1.70;;;;;;;44.73;9.84;97052.63;6285927;28;20415;-62
2023/06/09 05:31:32;;;;;;;4.53;2.20;;;;;;;46.26;9.58;97053.94;6286742;28;20496;-61
2023/06/09 05:34:36;;;;;;;5.40;2.05;;;;;;;47.77;8.51;97060.50;6283857;28;20475;-63
2023/06/09 05:37:55;;;;;;;7.72;2.03;;;;;;;49.24;8.13;97060.47;6286552;28;20040;-62
2023/06/09 05:41:01;;;;;;;3.03;1.20;;;;;;;49.44;7.04;97060.34;6287575;28;20041;-62
2023/06/09 05:44:07;;;;;;;4.10;1.33;;;;;;;48.21;7.91;97041.53;6283842;28;20049;-63
2023/06/09 05:47:11;;;;;;;2.72;1.35;;;;;;;46.52;8.51;97050.34;6289037;28;20041;-62
2023/06/09 05:50:14;;;;;;;2.22;0.90;;;;;;;43.19;9.23;97039.34;6290217;28;20040;-62
2023/06/09 05:53:18;;;;;;;5.43;1.50;;;;;;;39.31;11.80;97032.44;6284976;28;20063;-62
2023/06/09 05:56:25;;;;;;;4.88;1.35;;;;;;;35.95;13.97;97017.84;6286360;28;20585;-64
2023/06/09 05:59:34;;;;;;;4.00;1.65;;;;;;;33.51;15.54;97006.41;6283326;28;20183;-63
2023/06/09 06:02:38;;;;;;;4.55;1.85;;;;;;;30.87;18.35;97002.94;6285912;28;20687;-64
2023/06/09 06:05:46;;;;;;;4.82;1.80;;;;;;;29.19;19.87;96994.50;6287623;28;20044;-63
2023/06/09 06:08:48;;;;;;;3.38;1.95;;;;;;;31.95;18.42;96997.88;6289311;28;20062;-63
2023/06/09 06:11:55;;;;;;;4.85;1.50;;;;;;;36.54;14.02;97014.34;6289086;28;20041;-62
2023/06/09 06:14:56;;;;;;;1.33;1.10;;;;;;;39.59;11.69;97026.25;6283191;28;20191;-63
2023/06/09 06:18:03;;;;;;;3.28;1.10;;;;;;;41.64;10.03;97021.81;6284960;28;20036;-63
2023/06/09 06:21:11;;;;;;;4.53;1.08;;;;;;;42.73;9.71;97019.94;6284049;28;20036;-63
2023/06/09 06:24:15;;;;;;;1.20;1.02;;;;;;;43.12;9.31;97022.31;6282367;28;20044;-63
2023/06/09 06:27:19;;;;;;;1.27;0.82;;;;;;;43.66;9.17;97020.69;6287611;28;20036;-62
2023/06/09 06:30:22;;;;;;;2.45;0.90;;;;;;;43.79;9.16;97024.56;6289467;28;20352;-63
2023/06/09 06:33:29;;;;;;;6.90;1.00;;;;;;;45.11;9.09;97025.28;6285815;28;20174;-64
2023/06/09 06:36:30;;;;;;;2.55;0.95;;;;;;;45.78;8.01;97020.63;6281524;28;20036;-63
2023/06/09 06:39:34;;;;;;;1.20;0.95;;;;;;;46.08;7.99;97013.34;6286876;28;20040;-63
2023/06/09 06:42:41;;;;;;;4.20;1.00;;;;;;;47.09;7.38;97018.66;6279845;28;20486;-63
2023/06/09 06:45:45;;;;;;;2.65;0.90;;;;;;;47.86;7.43;97030.59;6284559;28;20036;-63
2023/06/09 06:48:51;;;;;;;1.75;1.15;;;;;;;48.08;7.25;97029.47;6288468;28;20045;-63
2023/06/09 06:51:57;;;;;;;1.25;0.70;;;;;;;48.32;6.88;97026.00;6282535;28;20447;-64
2023/06/09 06:55:07;;;;;;;1.48;0.90;;;;;;;48.32;7.17;97017.63;6270401;28;20522;-64
2023/06/09 06:58:14;;;;;;;1.67;0.80;;;;;;;48.66;6.94;97007.31;6284730;28;20044;-63
2023/06/09 07:01:22;;;;;;;2.55;0.70;;;;;;;47.32;7.37;97020.03;6280638;28;20032;-63
2023/06/09 07:04:29;;;;;;;2.00;0.82;;;;;;;47.61;7.44;97002.50;6286643;28;20040;-63
2023/06/09 07:07:36;;;;;;;1.02;0.70;;;;;;;45.97;8.02;97014.81;6284334;28;20041;-64
2023/06/09 07:10:40;;;;;;;2.28;1.30;;;;;;;41.00;10.50;96991.63;6281228;28;20041;-64
2023/06/09 07:13:44;;;;;;;3.63;1.20;;;;;;;40.32;11.35;97008.25;6284825;28;20060;-62
2023/06/09 07:16:50;;;;;;;1.20;0.90;;;;;;;42.59;9.79;97000.53;6279015;28;20048;-64
2023/06/09 07:19:57;;;;;;;3.30;1.00;;;;;;;42.04;10.38;96987.31;6288600;28;20040;-63
2023/06/09 07:23:01;;;;;;;2.35;1.15;;;;;;;42.08;10.51;96984.75;6280884;28;20036;-63
2023/06/09 07:26:03;;;;;;;2.50;0.90;;;;;;;41.72;10.19;96993.53;6282465;28;20032;-64
2023/06/09 07:29:13;;;;;;;3.13;0.85;;;;;;;42.15;10.33;96991.56;6286870;28;20033;-63
2023/06/09 07:32:20;;;;;;;1.33;1.02;;;;;;;42.55;9.90;96992.03;6281309;28;20036;-66
2023/06/09 07:35:28;;;;;;;1.38;1.08;;;;;;;39.20;11.68;96988.38;6285716;28;20033;-63
2023/06/09 07:38:39;;;;;;;1.30;0.80;;;;;;;36.48;13.63;96969.59;6287885;28;20036;-66
2023/06/09 07:41:47;;;;;;;1.15;0.85;;;;;;;36.69;14.02;96964.28;6281443;28;20041;-68
2023/06/09 07:44:55;;;;;;;12.90;9.52;;;;;;;38.18;13.15;96977.50;6287800;28;20044;-64
2023/06/09 07:47:59;;;;;;;3.58;1.77;;;;;;;41.39;10.72;96982.34;6284260;28;20048;-62
2023/06/09 07:51:03;;;;;;;2.30;1.08;;;;;;;41.38;10.15;96980.69;6283522;28;20677;-65
2023/06/09 07:54:07;;;;;;;2.63;1.30;;;;;;;37.05;12.89;96965.31;6285768;28;20439;-64
2023/06/09 07:57:17;;;;;;;3.38;1.25;;;;;;;35.35;14.11;96961.34;6287215;28;20040;-65
2023/06/09 08:00:30;;;;;;;3.30;1.20;;;;;;;39.24;12.11;96972.16;6285445;28;20052;-64
2023/06/09 08:03:38;;;;;;;2.13;0.90;;;;;;;40.01;11.11;96964.34;6285328;28;20064;-65
2023/06/09 08:06:45;;;;;;;1.08;0.80;;;;;;;39.50;11.54;96975.63;6286017;28;20049;-63
2023/06/09 08:09:51;;;;;;;1.60;1.20;;;;;;;39.74;11.19;96971.06;6283857;28;20094;-65
2023/06/09 08:12:57;;;;;;;2.03;1.75;;;;;;;37.63;12.11;96955.16;6286141;28;20052;-63
2023/06/09 08:16:02;;;;;;;1.50;1.13;;;;;;;35.53;13.54;96959.09;6283857;28;20040;-64
2023/06/09 08:19:03;;;;;;;1.08;0.90;;;;;;;33.53;15.59;96944.28;6286976;28;20618;-63
2023/06/09 08:22:12;;;;;;;2.63;1.10;;;;;;;32.29;15.89;96950.00;6286062;28;20040;-61
2023/06/09 08:25:18;;;;;;;1.10;1.00;;;;;;;32.76;15.62;96957.38;6284757;28;20509;-62
2023/06/09 08:28:21;;;;;;;1.20;0.98;;;;;;;31.92;16.44;96949.34;6266968;28;20045;-63
2023/06/09 08:31:24;;;;;;;1.92;1.25;;;;;;;30.65;17.50;96945.47;6269148;28;20353;-63
2023/06/09 08:34:27;;;;;;;3.38;1.50;;;;;;;29.79;19.01;96946.22;6277678;28;20431;-62
2023/06/09 08:37:29;;;;;;;4.45;1.92;;;;;;;29.03;20.60;96944.31;6286198;28;20051;-63
2023/06/09 08:40:35;;;;;;;3.10;1.75;;;;;;;28.45;21.13;96949.63;6283802;28;20055;-61
2023/06/09 08:43:37;;;;;;;9.52;1.80;;;;;;;29.25;20.25;96950.28;6283925;28;20052;-61
2023/06/09 08:46:40;;;;;;;2.70;1.13;;;;;;;28.91;20.70;96949.53;6285738;28;20130;-62
2023/06/09 08:49:41;;;;;;;2.65;1.33;;;;;;;28.17;21.75;96945.28;6284167;28;20558;-62
2023/06/09 08:52:42;;;;;;;4.95;1.52;;;;;;;27.76;21.76;96952.50;6285705;28;20059;-62
2023/06/09 08:55:44;;;;;;;2.08;1.38;;;;;;;29.63;19.53;96952.16;6291950;28;20048;-67
2023/06/09 08:58:47;;;;;;;2.30;1.52;;;;;;;32.70;16.38;96959.16;6290094;28;20206;-67
2023/06/09 09:01:51;;;;;;;1.42;1.20;;;;;;;34.48;15.15;96954.63;6291391;28;20048;-63
2023/06/09 09:04:56;;;;;;;2.75;1.40;;;;;;;35.00;14.30;96959.78;6293195;28;20048;-64
2023/06/09 09:07:57;;;;;;;2.10;1.15;;;;;;;33.58;16.15;96956.38;6288636;28;20054;-61
2023/06/09 09:11:01;;;;;;;1.92;1.40;;;;;;;34.46;15.08;96951.34;6285564;28;20396;-62
2023/06/09 09:14:12;;;;;;;2.00;1.15;;;;;;;35.98;13.51;96962.56;6288282;28;20052;-61
2023/06/09 09:17:16;;;;;;;3.55;1.40;;;;;;;37.18;11.94;96958.53;6289392;28;20047;-60
2023/06/09 09:20:18;;;;;;;1.48;0.82;;;;;;;38.08;11.26;96955.53;6284715;28;20054;-61
2023/06/09 09:23:30;;;;;;;1.20;0.93;;;;;;;39.20;10.85;96958.13;6290778;28;20448;-62
2023/06/09 09:26:34;;;;;;;2.17;1.30;;;;;;;38.64;11.33;96963.75;6290971;28;20198;-62
2023/06/09 09:29:43;;;;;;;2.03;1.10;;;;;;;35.71;12.71;96951.66;6287151;28;20048;-61
2023/06/09 09:32:44;;;;;;;4.07;1.27;;;;;;;34.89;13.43;96947.88;6289409;28;20052;-61
2023/06/09 09:35:55;;;;;;;4.50;1.70;;;;;;;36.20;13.87;96955.13;6286463;28;20372;-62
2023/06/09 09:39:01;;;;;;;3.33;1.40;;;;;;;36.19;13.53;96956.22;6282956;28;20585;-61
2023/06/09 09:42:07;;;;;;;4.00;1.52;;;;;;;35.33;14.57;96949.81;6290231;28;20420;-63
2023/06/09 09:45:15;;;;;;;1.60;1.33;;;;;;;34.58;14.27;96954.84;6287151;28;20052;-61
2023/06/09 09:48:24;;;;;;;1.65;1.27;;;;;;;34.74;14.63;96940.31;6272827;28;20037;-61
2023/06/09 09:51:32;;;;;;;1.48;1.38;;;;;;;34.77;14.67;96936.25;6283860;28;20045;-62
2023/06/09 09:54:36;;;;;;;3.33;1.40;;;;;;;35.40;13.82;96939.53;6284339;28;20109;-61
2023/06/09 09:57:40;;;;;;;1.85;1.30;;;;;;;36.38;13.40;96944.88;6286494;28;20515;-61
2023/06/09 10:00:48;;;;;;;1.70;1.27;;;;;;;35.64;13.46;96946.38;6282338;28;20060;-61
2023/06/09 10:03:55;;;;;;;1.50;1.27;;;;;;;35.04;14.04;96944.53;6284765;28;20075;-61
2023/06/09 10:07:02;;;;;;;1.40;1.30;;;;;;;34.61;14.14;96943.41;6289374;28;20604;-61
2023/06/09 10:10:04;;;;;;;1.33;1.15;;;;;;;34.46;13.97;96943.16;6287235;28;20139;-61
2023/06/09 10:13:12;;;;;;;1.88;1.10;;;;;;;34.84;13.71;96945.91;6287359;28;20063;-61
2023/06/09 10:16:17;;;;;;;4.20;1.42;;;;;;;35.78;12.95;96945.94;6285867;28;20393;-60
2023/06/09 10:19:23;;;;;;;3.47;1.45;;;;;;;35.75;12.80;96941.81;6285326;28;20040;-62
2023/06/09 10:22:26;;;;;;;2.55;1.40;;;;;;;34.21;13.78;96933.47;6283863;28;20032;-61
2023/06/09 10:25:33;;;;;;;2.28;1.77;;;;;;;31.52;15.92;96933.59;6282494;28;20041;-62
2023/06/09 10:28:37;;;;;;;3.40;1.95;;;;;;;30.43;17.34;96931.53;6292973;28;20103;-63
2023/06/09 10:31:58;;;;;;;1.63;1.48;;;;;;;30.12;17.38;96926.13;6282030;28;20051;-62
2023/06/09 10:35:27;;;;;;;2.15;1.42;;;;;;;29.92;17.49;96929.00;6287887;28;20036;-61
2023/06/09 10:38:31;;;;;;;3.50;1.50;;;;;;;30.54;17.19;96915.53;6282856;28;20029;-61
2023/06/09 10:41:41;;;;;;;1.88;1.30;;;;;;;31.92;16.03;96927.59;6286803;28;20048;-61
2023/06/09 10:44:51;;;;;;;;;;;;;;;33.11;15.02;96915.63;6284289;28;20057;-61
2023/06/09 10:47:55;;;;;;;4.28;1.67;;;;;;;31.95;15.70;96921.69;6286319;28;20018;-61
2023/06/09 10:51:25;;;;;;;3.80;1.50;;;;;;;30.41;17.11;96920.03;6287102;28;20459;-61
2023/06/09 10:54:30;;;;;;;4.90;2.07;;;;;;;28.96;18.77;96908.25;6282474;28;20044;-61
2023/06/09 10:57:39;;;;;;;3.65;1.50;;;;;;;27.71;20.71;96911.75;6285598;28;20610;-67
2023/06/09 11:01:09;;;;;;;6.78;2.35;;;;;;;26.94;22.26;96909.47;6287368;28;20508;-69
2023/06/09 11:04:44;;;;;;;5.20;2.08;;;;;;;26.26;23.06;96912.81;6280795;28;20048;-64
2023/06/09 11:08:05;;;;;;;6.03;2.58;;;;;;;25.82;23.42;96911.22;6280786;28;20446;-66
2023/06/09 11:11:15;;;;;;;2.80;1.92;;;;;;;25.56;23.29;96908.28;6290860;28;20457;-66
2023/06/09 11:14:43;;;;;;;4.65;2.08;;;;;;;25.74;23.35;96903.28;6286428;28;20036;-65
2023/06/09 11:17:49;;;;;;;8.90;2.20;;;;;;;25.61;23.58;96906.66;6283388;28;20048;-67
2023/06/09 11:21:10;;;;;;;6.32;2.17;;;;;;;25.52;23.92;96900.56;6288466;28;20055;-66
2023/06/09 11:24:11;;;;;;;2.17;1.98;;;;;;;25.34;23.76;96902.91;6283895;28;20040;-67
2023/06/09 11:27:23;;;;;;;5.13;2.80;;;;;;;25.26;23.65;96911.94;6288394;28;20633;-69
2023/06/09 11:30:26;;;;;;;4.68;2.33;;;;;;;25.19;23.39;96902.09;6265631;28;20666;-67
2023/06/09 11:34:00;;;;;;;8.25;2.22;;;;;;;25.08;23.53;96904.25;6283895;28;20043;-66
2023/06/09 11:37:04;;;;;;;2.42;1.88;;;;;;;25.75;22.65;96894.16;6285276;28;20051;-67
2023/06/09 11:40:08;;;;;;;2.97;1.70;;;;;;;26.66;21.85;96891.47;6283440;28;20036;-66
2023/06/09 11:43:16;;;;;;;1.80;1.67;;;;;;;27.54;20.66;96886.16;6284797;28;20532;-64
2023/06/09 11:46:24;;;;;;;1.98;1.63;;;;;;;27.83;20.28;96893.06;6285840;28;20555;-64
2023/06/09 11:49:26;;;;;;;2.63;1.88;;;;;;;28.07;19.67;96882.66;6284124;28;20052;-64
2023/06/09 11:52:27;;;;;;;3.33;1.80;;;;;;;28.26;20.01;96880.97;6283074;28;20055;-66
2023/06/09 11:55:33;;;;;;;4.40;1.77;;;;;;;28.78;19.55;96882.69;6282508;28;20056;-64
2023/06/09 11:58:35;;;;;;;5.35;2.00;;;;;;;29.61;18.95;96891.84;6281192;28;20044;-64
2023/06/09 12:01:42;;;;;;;2.25;1.63;;;;;;;30.12;18.19;96897.13;6283611;28;20032;-66
2023/06/09 12:04:47;;;;;;;3.60;1.85;;;;;;;30.17;18.20;96893.72;6289249;28;20036;-69
2023/06/09 12:07:55;;;;;;;1.80;1.60;;;;;;;30.29;18.10;96905.56;6289630;28;20041;-67
2023/06/09 12:11:01;;;;;;;4.13;1.70;;;;;;;30.63;17.92;96897.88;6282796;28;20450;-63
2023/06/09 12:14:07;;;;;;;2.53;1.38;;;;;;;30.86;17.64;96892.63;6286403;28;20044;-67
2023/06/09 12:17:10;;;;;;;2.47;1.98;;;;;;;30.91;18.00;96899.25;6290673;28;20029;-66
2023/06/09 12:20:34;;;;;;;2.38;1.50;;;;;;;30.72;17.33;96901.97;6293463;28;20045;-66
2023/06/09 12:23:38;;;;;;;3.22;1.92;;;;;;;29.87;17.84;96899.03;6293158;28;20407;-61
2023/06/09 12:26:50;;;;;;;4.57;1.70;;;;;;;29.25;18.62;96896.06;6292045;28;20044;-64
2023/06/09 12:29:54;;;;;;;2.15;1.30;;;;;;;29.12;18.38;96886.13;6293064;28;20045;-62
2023/06/09 12:32:56;;;;;;;2.85;1.48;;;;;;;28.47;18.94;96890.72;6292690;28;20040;-62
2023/06/09 12:36:09;;;;;;;2.58;1.58;;;;;;;27.75;19.54;96890.53;6278059;28;20032;-62
2023/06/09 12:39:19;;;;;;;2.15;1.33;;;;;;;26.92;20.73;96898.03;6291533;28;20036;-65
2023/06/09 12:42:26;;;;;;;5.10;2.28;;;;;;;26.35;21.20;96892.72;6289921;28;20052;-64
2023/06/09 12:45:33;;;;;;;3.78;1.88;;;;;;;25.61;22.62;96886.97;6289744;28;20040;-62
2023/06/09 12:49:03;;;;;;;2.88;1.63;;;;;;;25.02;22.53;96894.22;6288735;28;20048;-67
2023/06/09 12:52:04;;;;;;;3.33;2.03;;;;;;;24.68;23.22;96885.94;6288728;28;20575;-60
2023/06/09 12:55:08;;;;;;;5.28;2.25;;;;;;;24.57;23.95;96890.81;6288821;28;20044;-60
2023/06/09 12:58:10;;;;;;;3.53;2.08;;;;;;;24.47;23.69;96890.25;6285214;28;20440;-64
2023/06/09 13:01:15;;;;;;;2.72;1.90;;;;;;;24.59;23.48;96883.34;6291123;28;20131;-61
2023/06/09 13:04:17;;;;;;;1.55;1.45;;;;;;;24.89;23.41;96888.69;6282402;28;20535;-61
2023/06/09 13:07:18;;;;;;;2.20;1.40;;;;;;;25.50;22.67;96875.69;6289819;28;20048;-59
2023/06/09 13:10:20;;;;;;;1.40;1.30;;;;;;;26.02;22.18;96878.22;6288852;28;20052;-61
2023/06/09 13:13:21;;;;;;;2.17;1.95;;;;;;;26.28;22.12;96883.78;6289554;28;20624;-60
2023/06/09 13:16:25;;;;;;;14.25;3.40;;;;;;;26.04;22.50;96886.94;6286264;28;20182;-61
2023/06/09 13:19:31;;;;;;;4.10;1.98;;;;;;;25.74;22.13;96876.31;6280839;28;20044;-60
2023/06/09 13:22:35;;;;;;;3.72;1.83;;;;;;;25.64;22.36;96875.81;6285984;28;20040;-60
2023/06/09 13:25:41;;;;;;;2.28;1.70;;;;;;;25.70;22.29;96883.09;6284101;28;20223;-61
2023/06/09 13:28:44;;;;;;;2.88;2.20;;;;;;;25.71;22.31;96876.72;6287967;28;20094;-63
2023/06/09 13:31:50;;;;;;;3.38;1.80;;;;;;;25.60;23.10;96874.53;6292813;28;20499;-61
2023/06/09 13:34:52;;;;;;;1.58;1.20;;;;;;;25.42;22.75;96873.16;6286164;28;20678;-62
2023/06/09 13:37:58;;;;;;;4.55;2.47;;;;;;;25.16;22.61;96873.69;6283802;28;20045;-60
2023/06/09 13:40:59;;;;;;;4.75;2.38;;;;;;;25.08;22.71;96882.72;6285685;28;20522;-61
2023/06/09 13:44:05;;;;;;;6.13;3.17;;;;;;;25.13;22.79;96873.22;6288338;28;20058;-60
2023/06/09 13:47:11;;;;;;;11.23;4.57;;;;;;;25.20;22.65;96863.41;6290562;28;20070;-62
2023/06/09 13:50:14;;;;;;;8.48;3.20;;;;;;;25.26;23.48;96868.00;6290564;28;20044;-61
2023/06/09 13:53:15;;;;;;;11.20;4.55;;;;;;;25.22;23.34;96866.72;6287256;28;20051;-60
2023/06/09 13:56:22;;;;;;;6.70;2.47;;;;;;;25.26;22.04;96862.63;6287418;28;20032;-61
2023/06/09 13:59:24;;;;;;;4.47;2.63;;;;;;;25.35;22.02;96866.03;6284888;28;20036;-61
2023/06/09 14:02:25;;;;;;;3.28;2.30;;;;;;;25.45;21.70;96864.69;6290913;28;20534;-61
2023/06/09 14:05:27;;;;;;;5.78;1.95;;;;;;;25.64;22.55;96870.41;6288276;28;20071;-61
2023/06/09 14:08:29;;;;;;;8.40;2.20;;;;;;;25.61;22.69;96870.81;6288081;28;20123;-61
2023/06/09 14:11:30;;;;;;;5.25;1.92;;;;;;;25.50;22.95;96869.47;6288641;28;20404;-62
2023/06/09 14:14:34;;;;;;;2.05;1.30;;;;;;;25.55;21.54;96864.34;6285128;28;20043;-61
2023/06/09 14:17:35;;;;;;;2.72;1.50;;;;;;;25.26;21.54;96866.16;6288314;28;20036;-60
2023/06/09 14:20:36;;;;;;;4.07;1.67;;;;;;;24.96;22.52;96873.44;6291853;28;20036;-61
2023/06/09 14:23:40;;;;;;;3.60;1.83;;;;;;;24.74;22.89;96842.13;6282286;28;20056;-60
2023/06/09 14:26:44;;;;;;;3.47;1.98;;;;;;;24.70;24.01;96873.16;6284976;28;20041;-59
2023/06/09 14:29:46;;;;;;;4.95;2.30;;;;;;;24.55;24.24;96871.31;6289154;28;20163;-61
2023/06/09 14:32:50;;;;;;;5.75;2.35;;;;;;;24.48;24.29;96877.63;6285304;28;20040;-60
2023/06/09 14:35:54;;;;;;;3.10;1.40;;;;;;;24.45;24.14;96876.13;6284765;28;20052;-61